Time;durP1;ratioP1;P1;durP2;ratioP2;P2;SDS_P1;SDS_P2;PMS_P1;PMS_P2;Temp;Humidity;BMP_temperature;BMP_pressure;BME280_temperature;BME280_humidity;BME280_pressure;Samples;Min_cycle;Max_cycle;Signal;HPM_P1;HPM_P2
2024/01/27 06:43:35;;;;;;;6.65;2.55;;;;;;;;;;10500330;28;20404;-80
2024/01/27 06:48:36;;;;;;;7.30;2.72;;;;;;;;;;10497570;28;20028;-80
2024/01/27 06:54:14;;;;;;;5.53;2.65;;;;;;;;;;10496945;22;20140;-83
2024/01/27 06:59:21;;;;;;;5.72;3.00;;;;;;;;;;10442684;28;20127;-83
2024/01/27 07:09:58;;;;;;;10.75;2.95;;;;;;;;;;10461100;28;20041;-84
2024/01/27 07:15:21;;;;;;;9.38;3.67;;;;;;;;;;10462263;28;20393;-83
2024/01/27 07:20:36;;;;;;;9.63;4.50;;;;;;;;;;10460715;28;20033;-83
2024/01/27 07:26:07;;;;;;;8.70;3.85;;;;;;;;;;10463780;28;20040;-82
2024/01/27 07:31:14;;;;;;;9.57;3.78;;;;;;;;;;10458049;28;20396;-82
2024/01/27 07:36:16;;;;;;;8.68;3.67;;;;;;;;;;10458276;28;20041;-82
2024/01/27 07:41:17;;;;;;;;;;;;;;;;;;10456334;28;20022;-82
2024/01/27 07:46:21;;;;;;;8.63;4.00;;;;;;;;;;10458510;28;19912;-82
2024/01/27 07:51:22;;;;;;;7.70;3.78;;;;;;;;;;10451990;28;20065;-82
2024/01/27 07:56:23;;;;;;;;;;;;;;;;;;10433879;28;20461;-83
2024/01/27 08:01:24;;;;;;;;;;;;;;;;;;10437186;28;19952;-83
2024/01/27 08:06:30;;;;;;;9.32;3.90;;;;;;;;;;10463579;28;19912;-83
2024/01/27 08:11:34;;;;;;;8.25;3.85;;;;;;;;;;10464668;28;20038;-84
2024/01/27 08:16:38;;;;;;;9.65;3.80;;;;;;;;;;10437624;28;20039;-85
2024/01/27 08:21:39;;;;;;;6.80;3.63;;;;;;;;;;10437208;28;20026;-84
2024/01/27 08:27:00;;;;;;;8.13;3.95;;;;;;;;;;10438385;28;20026;-85
2024/01/27 08:32:10;;;;;;;8.75;3.95;;;;;;;;;;10437384;28;20026;-85
2024/01/27 08:37:40;;;;;;;9.03;3.67;;;;;;;;;;10439139;28;20022;-84
2024/01/27 08:42:44;;;;;;;8.55;3.75;;;;;;;;;;10439773;28;20037;-84
2024/01/27 08:48:16;;;;;;;7.75;3.70;;;;;;;;;;10433791;28;20039;-84
2024/01/27 08:53:18;;;;;;;10.23;5.00;;;;;;;;;;10430103;28;20120;-84
2024/01/27 08:58:19;;;;;;;11.32;4.30;;;;;;;;;;10430831;28;20124;-83
2024/01/27 09:03:22;;;;;;;6.18;3.90;;;;;;;;;;10442104;28;20026;-83
2024/01/27 09:08:39;;;;;;;9.30;4.03;;;;;;;;;;10437888;28;20041;-84
2024/01/27 09:13:41;;;;;;;9.23;4.68;;;;;;;;;;10436989;28;20049;-83
2024/01/27 09:18:58;;;;;;;8.80;4.03;;;;;;;;;;10432559;28;20075;-84
2024/01/27 09:24:05;;;;;;;7.05;3.58;;;;;;;;;;10415411;28;20026;-84
2024/01/27 09:34:58;;;;;;;8.75;3.97;;;;;;;;;;10460473;28;20014;-83
2024/01/27 09:40:07;;;;;;;8.00;3.60;;;;;;;;;;10466270;28;20029;-83
2024/01/27 09:45:10;;;;;;;9.25;3.75;;;;;;;;;;10447724;28;20040;-82
2024/01/27 09:50:12;;;;;;;7.68;3.65;;;;;;;;;;10428909;28;20030;-84
2024/01/27 09:55:16;;;;;;;9.80;4.85;;;;;;;;;;10430519;28;20208;-82
2024/01/27 10:00:20;;;;;;;7.55;4.00;;;;;;;;;;10430158;28;20076;-84
2024/01/27 10:05:21;;;;;;;8.00;3.40;;;;;;;;;;10427369;28;20021;-83
2024/01/27 10:10:22;;;;;;;8.02;3.50;;;;;;;;;;10429926;28;20124;-81
2024/01/27 10:15:28;;;;;;;6.03;3.00;;;;;;;;;;10442338;28;20028;-82
2024/01/27 10:20:30;;;;;;;6.70;3.28;;;;;;;;;;10457783;28;20021;-82
2024/01/27 10:25:31;;;;;;;;;;;;;;;;;;10460018;28;20026;-83
2024/01/27 10:30:32;;;;;;;9.15;4.10;;;;;;;;;;10455661;28;19913;-81
2024/01/27 10:35:32;;;;;;;;;;;;;;;;;;10456888;28;20033;-81
2024/01/27 10:40:34;;;;;;;7.93;3.28;;;;;;;;;;10454633;28;19948;-81
2024/01/27 10:45:39;;;;;;;8.48;4.13;;;;;;;;;;10438784;28;20037;-81
2024/01/27 10:50:41;;;;;;;7.80;3.28;;;;;;;;;;10426989;28;20129;-82
2024/01/27 10:55:42;;;;;;;8.73;3.58;;;;;;;;;;10426048;28;20123;-83
2024/01/27 11:00:45;;;;;;;8.30;3.35;;;;;;;;;;10425882;28;20033;-83
2024/01/27 11:05:50;;;;;;;10.02;3.85;;;;;;;;;;10426094;28;20032;-83
2024/01/27 11:10:51;;;;;;;11.75;3.88;;;;;;;;;;10428745;28;20136;-84
2024/01/27 11:15:52;;;;;;;;;;;;;;;;;;10429609;28;20045;-84
2024/01/27 11:20:54;;;;;;;6.40;2.47;;;;;;;;;;10426883;28;19905;-84
2024/01/27 11:26:03;;;;;;;5.38;2.65;;;;;;;;;;10430536;28;20546;-83
2024/01/27 11:31:07;;;;;;;10.55;3.53;;;;;;;;;;10436863;28;20029;-83
2024/01/27 11:36:08;;;;;;;6.90;2.75;;;;;;;;;;10416799;28;20568;-83
2024/01/27 11:41:13;;;;;;;6.82;3.33;;;;;;;;;;10436116;28;20440;-83
2024/01/27 11:46:17;;;;;;;10.32;4.30;;;;;;;;;;10437120;28;20563;-83
2024/01/27 11:51:22;;;;;;;9.15;3.65;;;;;;;;;;10438256;28;20033;-84
2024/01/27 11:56:24;;;;;;;6.65;3.15;;;;;;;;;;10438428;28;20489;-83
2024/01/27 12:01:26;;;;;;;;;;;;;;;;;;10438985;28;20029;-83
2024/01/27 12:06:28;;;;;;;6.35;3.10;;;;;;;;;;10440668;28;19905;-84
2024/01/27 12:11:31;;;;;;;7.40;3.45;;;;;;;;;;10438392;28;20022;-83
2024/01/27 12:16:32;;;;;;;10.68;4.18;;;;;;;;;;10438503;28;20045;-83
2024/01/27 12:21:35;;;;;;;8.38;3.08;;;;;;;;;;10438531;28;20116;-83
2024/01/27 12:26:39;;;;;;;10.75;4.18;;;;;;;;;;10435878;28;20399;-84
2024/01/27 12:31:42;;;;;;;10.55;4.72;;;;;;;;;;10437502;28;20096;-84
2024/01/27 12:36:59;;;;;;;7.85;3.08;;;;;;;;;;10438870;28;20063;-84
2024/01/27 12:42:11;;;;;;;13.77;8.40;;;;;;;;;;10440247;28;20144;-85
2024/01/27 12:47:13;;;;;;;10.23;3.80;;;;;;;;;;10437676;28;20097;-82
2024/01/27 12:52:14;;;;;;;9.50;4.30;;;;;;;;;;10480952;23;20132;-81
2024/01/27 12:57:17;;;;;;;10.07;4.30;;;;;;;;;;10403276;28;20034;-80
2024/01/27 13:02:44;;;;;;;10.45;4.32;;;;;;;;;;10390555;28;20040;-82
2024/01/27 13:07:46;;;;;;;13.07;5.05;;;;;;;;;;10389292;28;20038;-82
2024/01/27 13:12:47;;;;;;;;;;;;;;;;;;10386720;28;20030;-82
2024/01/27 13:17:48;;;;;;;9.15;4.80;;;;;;;;;;10389104;28;19912;-82
2024/01/27 13:22:49;;;;;;;;;;;;;;;;;;10390181;28;20173;-81
2024/01/27 13:27:50;;;;;;;12.25;3.80;;;;;;;;;;10394726;28;19905;-82
2024/01/27 13:32:51;;;;;;;;;;;;;;;;;;10393276;28;20049;-82
2024/01/27 13:37:52;;;;;;;6.68;3.17;;;;;;;;;;10393362;28;20355;-81
2024/01/27 13:42:54;;;;;;;9.23;3.88;;;;;;;;;;10389459;28;20092;-81
2024/01/27 13:47:55;;;;;;;6.82;3.20;;;;;;;;;;10390109;28;20075;-82
2024/01/27 13:52:55;;;;;;;;;;;;;;;;;;10392729;28;20065;-82
2024/01/27 13:57:56;;;;;;;12.88;5.97;;;;;;;;;;10393271;28;19931;-81
2024/01/27 14:02:57;;;;;;;;;;;;;;;;;;10413888;28;20034;-81
2024/01/27 14:07:58;;;;;;;9.35;3.90;;;;;;;;;;10397889;28;19905;-81
2024/01/27 14:13:02;;;;;;;5.95;2.83;;;;;;;;;;10388426;28;20033;-82
2024/01/27 14:18:07;;;;;;;8.77;3.70;;;;;;;;;;10386349;28;20026;-81
2024/01/27 14:23:08;;;;;;;14.07;5.20;;;;;;;;;;10386315;28;20068;-82
2024/01/27 14:28:11;;;;;;;;;;;;;;;;;;10384905;28;20026;-81
2024/01/27 14:33:12;;;;;;;8.90;3.83;;;;;;;;;;10382891;28;19905;-82
2024/01/27 14:38:13;;;;;;;6.43;2.85;;;;;;;;;;10384774;28;20030;-82
2024/01/27 14:43:17;;;;;;;;;;;;;;;;;;10381322;28;20438;-82
2024/01/27 14:48:19;;;;;;;8.88;4.38;;;;;;;;;;10382769;28;19949;-82
2024/01/27 14:53:20;;;;;;;5.50;3.22;;;;;;;;;;10382608;28;20033;-82
2024/01/27 14:58:21;;;;;;;;;;;;;;;;;;10382934;28;20095;-82
2024/01/27 15:03:23;;;;;;;10.75;5.32;;;;;;;;;;10391897;28;19933;-83
2024/01/27 15:08:24;;;;;;;5.53;2.70;;;;;;;;;;10411954;28;20042;-81
2024/01/27 15:13:25;;;;;;;;;;;;;;;;;;10418113;28;20045;-81
2024/01/27 15:18:26;;;;;;;8.70;3.40;;;;;;;;;;10397476;28;20388;-81
2024/01/27 15:23:28;;;;;;;;;;;;;;;;;;10396574;28;20106;-81
2024/01/27 15:28:30;;;;;;;5.72;2.30;;;;;;;;;;10397789;28;19909;-81
2024/01/27 15:33:30;;;;;;;4.97;2.58;;;;;;;;;;10393586;28;20028;-81
2024/01/27 15:38:32;;;;;;;;;;;;;;;;;;10394336;28;20026;-81
2024/01/27 15:43:33;;;;;;;5.10;2.50;;;;;;;;;;10406097;28;19915;-80
2024/01/27 15:48:34;;;;;;;;;;;;;;;;;;10408567;28;20061;-80
2024/01/27 15:53:35;;;;;;;4.65;2.50;;;;;;;;;;10406356;28;19948;-83
2024/01/27 15:58:36;;;;;;;;;;;;;;;;;;10391343;28;20093;-81
2024/01/27 16:03:37;;;;;;;6.97;2.88;;;;;;;;;;10388056;28;20353;-81
2024/01/27 16:08:38;;;;;;;4.70;2.30;;;;;;;;;;10392164;28;20486;-81
2024/01/27 16:13:39;;;;;;;;;;;;;;;;;;10389796;28;20034;-81
2024/01/27 16:18:40;;;;;;;6.57;2.40;;;;;;;;;;10388189;28;19912;-81
2024/01/27 16:23:41;;;;;;;;;;;;;;;;;;10388626;28;20076;-81
2024/01/27 16:28:44;;;;;;;4.07;2.08;;;;;;;;;;10388009;28;20349;-81
2024/01/27 16:33:45;;;;;;;5.22;2.40;;;;;;;;;;10385941;28;20050;-81
2024/01/27 16:38:46;;;;;;;;;;;;;;;;;;10386996;28;20038;-81
2024/01/27 16:43:49;;;;;;;6.00;2.72;;;;;;;;;;10386580;28;20387;-81
2024/01/27 16:48:50;;;;;;;5.22;3.28;;;;;;;;;;10388363;28;20056;-82
2024/01/27 16:53:52;;;;;;;9.75;5.07;;;;;;;;;;10386221;28;20056;-82
2024/01/27 16:58:53;;;;;;;;;;;;;;;;;;10386679;28;20515;-82
2024/01/27 17:03:54;;;;;;;5.80;3.65;;;;;;;;;;10392303;28;19955;-81
2024/01/27 17:08:55;;;;;;;5.60;2.78;;;;;;;;;;10398121;28;20025;-82
2024/01/27 17:13:58;;;;;;;7.53;4.30;;;;;;;;;;10416252;28;20021;-82
2024/01/27 17:18:59;;;;;;;5.82;3.80;;;;;;;;;;10420941;28;20421;-82
2024/01/27 17:24:00;;;;;;;;;;;;;;;;;;10392746;28;20030;-82
2024/01/27 17:29:02;;;;;;;7.57;4.40;;;;;;;;;;10391160;28;19905;-83
2024/01/27 17:34:03;;;;;;;5.72;3.42;;;;;;;;;;10408229;28;20029;-82
2024/01/27 17:39:04;;;;;;;;;;;;;;;;;;10399103;28;20052;-82
2024/01/27 17:44:05;;;;;;;7.18;4.30;;;;;;;;;;10385199;28;19974;-81
2024/01/27 17:49:07;;;;;;;8.32;4.70;;;;;;;;;;10384594;28;20026;-82
2024/01/27 17:54:08;;;;;;;8.57;4.97;;;;;;;;;;10386622;28;20030;-82
2024/01/27 17:59:09;;;;;;;;;;;;;;;;;;10409259;28;20030;-82
2024/01/27 18:04:10;;;;;;;5.22;3.72;;;;;;;;;;10398210;28;19906;-81
2024/01/27 18:09:11;;;;;;;;;;;;;;;;;;10406342;28;20497;-81
2024/01/27 18:14:12;;;;;;;;;;;;;;;;;;10385531;28;19905;-81
2024/01/27 18:19:16;;;;;;;8.65;5.45;;;;;;;;;;10382423;28;19906;-81
2024/01/27 18:24:17;;;;;;;10.18;6.97;;;;;;;;;;10384118;28;20097;-81
2024/01/27 18:29:19;;;;;;;;;;;;;;;;;;10389498;28;20180;-81
2024/01/27 18:34:20;;;;;;;9.73;6.20;;;;;;;;;;10385499;28;19905;-81
2024/01/27 18:39:22;;;;;;;12.43;9.00;;;;;;;;;;10382531;28;20033;-82
2024/01/27 18:44:22;;;;;;;;;;;;;;;;;;10383015;28;20028;-81
2024/01/27 18:49:24;;;;;;;14.20;9.65;;;;;;;;;;10383595;28;19912;-82
2024/01/27 19:27:56;;;;;;;13.82;9.05;;;;;;;;;;10307807;28;20018;-84
2024/01/27 19:33:08;;;;;;;12.55;9.32;;;;;;;;;;10308869;28;20041;-84
